createdAt,value
2022-11-27T00:02:52.228Z,22.73
2022-11-27T00:05:58.532Z,23.30
2022-11-27T00:09:01.971Z,23.77
2022-11-27T00:12:03.678Z,22.87
2022-11-27T00:15:05.398Z,22.48
2022-11-27T00:18:07.031Z,22.30
2022-11-27T00:21:11.917Z,22.87
2022-11-27T00:24:13.499Z,22.87
2022-11-27T00:27:15.134Z,22.87
2022-11-27T00:30:16.826Z,22.67
2022-11-27T00:33:18.385Z,22.83
2022-11-27T00:36:19.957Z,22.20
2022-11-27T00:39:21.541Z,22.90
2022-11-27T00:42:23.156Z,24.37
2022-11-27T00:45:24.742Z,23.08
2022-11-27T00:48:26.318Z,24.27
2022-11-27T00:51:29.031Z,24.73
2022-11-27T00:54:30.598Z,24.35
2022-11-27T00:57:32.199Z,22.45
2022-11-27T01:00:33.784Z,24.15
2022-11-27T01:03:35.598Z,25.02
2022-11-27T01:06:37.345Z,23.85
2022-11-27T01:09:39.049Z,26.30
2022-11-27T01:12:40.695Z,26.25
2022-11-27T01:15:42.442Z,24.55
2022-11-27T01:18:45.835Z,25.48
2022-11-27T01:21:47.520Z,24.45
2022-11-27T01:24:49.068Z,25.10
2022-11-27T01:27:50.614Z,26.75
2022-11-27T01:30:52.650Z,25.55
2022-11-27T01:34:00.554Z,24.85
2022-11-27T01:37:02.110Z,25.25
2022-11-27T01:40:04.065Z,24.20
2022-11-27T01:43:06.326Z,25.58
2022-11-27T01:46:29.554Z,26.83
2022-11-27T01:49:41.135Z,24.33
2022-11-27T01:52:47.743Z,23.83
2022-11-27T01:55:55.951Z,24.67
2022-11-27T01:58:59.849Z,23.70
2022-11-27T02:02:03.813Z,23.10
2022-11-27T02:05:05.799Z,22.83
2022-11-27T02:08:10.187Z,23.15
2022-11-27T02:11:11.660Z,22.20
2022-11-27T02:14:24.347Z,22.80
2022-11-27T02:17:52.588Z,23.40
2022-11-27T02:21:09.376Z,23.45
2022-11-27T02:24:46.130Z,22.23
2022-11-27T02:27:57.446Z,21.30
2022-11-27T02:31:16.772Z,21.92
2022-11-27T02:34:34.938Z,20.08
2022-11-27T02:37:56.686Z,29.08
2022-11-27T02:41:15.031Z,22.27
2022-11-27T02:44:17.679Z,21.02
2022-11-27T02:47:20.947Z,28.60
2022-11-27T02:50:25.390Z,23.27
2022-11-27T02:53:32.994Z,22.92
2022-11-27T02:59:37.841Z,20.15
2022-11-27T03:02:46.325Z,21.17
2022-11-27T03:05:51.431Z,21.23
2022-11-27T03:09:03.543Z,21.95
2022-11-27T03:12:07.423Z,21.37
2022-11-27T03:15:09.631Z,22.30
2022-11-27T03:18:23.445Z,21.98
2022-11-27T03:21:36.402Z,22.30
2022-11-27T03:24:38.492Z,21.98
2022-11-27T03:27:47.247Z,22.27
2022-11-27T03:30:48.894Z,22.48
2022-11-27T03:33:51.009Z,22.98
2022-11-27T03:36:52.612Z,23.20
2022-11-27T03:39:55.088Z,21.85
2022-11-27T03:43:13.522Z,22.98
2022-11-27T03:46:30.576Z,21.37
2022-11-27T03:49:50.593Z,22.62
2022-11-27T03:53:12.657Z,22.33
2022-11-27T03:57:08.313Z,22.92
2022-11-27T04:00:11.993Z,22.70
2022-11-27T04:03:13.768Z,23.77
2022-11-27T04:06:15.509Z,22.90
2022-11-27T04:09:17.043Z,22.85
2022-11-27T04:12:18.603Z,23.40
2022-11-27T04:15:20.134Z,23.90
2022-11-27T04:18:21.778Z,23.65
2022-11-27T04:21:23.319Z,34.45
2022-11-27T04:24:24.898Z,30.02
2022-11-27T04:27:26.518Z,30.00
2022-11-27T04:30:28.088Z,23.75
2022-11-27T04:33:29.734Z,23.38
2022-11-27T04:36:36.064Z,23.45
2022-11-27T04:39:40.513Z,22.30
2022-11-27T04:42:42.072Z,24.27
2022-11-27T04:45:44.415Z,23.42
2022-11-27T04:48:45.959Z,24.33
2022-11-27T04:51:47.821Z,23.55
2022-11-27T04:54:49.378Z,24.12
2022-11-27T04:57:50.934Z,27.48
2022-11-27T05:00:52.497Z,38.30
2022-11-27T05:03:54.092Z,35.88
2022-11-27T05:06:55.697Z,27.77
2022-11-27T05:09:57.589Z,25.95
2022-11-27T05:12:59.135Z,30.65
2022-11-27T05:16:01.134Z,27.77
2022-11-27T05:19:02.731Z,25.12
2022-11-27T05:22:04.435Z,25.35
2022-11-27T05:25:06.444Z,34.13
2022-11-27T05:28:08.017Z,33.97
2022-11-27T05:31:09.658Z,27.25
2022-11-27T05:34:12.015Z,30.85
2022-11-27T05:37:19.116Z,41.50
2022-11-27T05:43:22.639Z,36.70
2022-11-27T05:46:24.315Z,30.10
2022-11-27T05:49:25.986Z,39.15
2022-11-27T05:52:27.513Z,45.08
2022-11-27T05:55:29.178Z,26.60
2022-11-27T05:58:31.113Z,25.17
2022-11-27T06:01:32.911Z,24.92
2022-11-27T06:04:34.814Z,24.65
2022-11-27T06:07:36.417Z,24.00
2022-11-27T06:10:39.174Z,24.33
2022-11-27T06:13:41.074Z,28.52
2022-11-27T06:16:42.668Z,24.50
2022-11-27T06:19:44.320Z,23.92
2022-11-27T06:22:46.009Z,26.42
2022-11-27T06:25:47.564Z,29.10
2022-11-27T06:28:50.127Z,27.35
2022-11-27T06:31:51.729Z,28.17
2022-11-27T06:34:53.400Z,26.90
2022-11-27T06:37:54.979Z,25.33
2022-11-27T06:41:02.248Z,23.23
2022-11-27T06:44:04.263Z,24.25
2022-11-27T06:47:05.970Z,28.77
2022-11-27T06:50:07.941Z,27.05
2022-11-27T06:53:09.483Z,27.50
2022-11-27T06:56:13.862Z,27.45
2022-11-27T06:59:15.576Z,28.05
2022-11-27T07:02:17.344Z,27.00
2022-11-27T07:05:18.899Z,34.45
2022-11-27T07:08:20.985Z,32.08
2022-11-27T07:11:25.220Z,32.97
2022-11-27T07:14:26.808Z,29.87
2022-11-27T07:17:28.486Z,28.77
2022-11-27T07:20:30.066Z,30.12
2022-11-27T07:23:31.700Z,28.35
2022-11-27T07:26:33.508Z,24.92
2022-11-27T07:29:35.058Z,26.52
2022-11-27T07:32:36.626Z,26.15
2022-11-27T07:35:38.330Z,25.27
2022-11-27T07:38:40.079Z,24.42
2022-11-27T07:41:41.805Z,25.33
2022-11-27T07:44:43.502Z,24.95
2022-11-27T07:47:45.109Z,25.98
2022-11-27T07:50:46.730Z,28.10
2022-11-27T07:53:51.744Z,27.20
2022-11-27T07:56:53.338Z,29.30
2022-11-27T07:59:54.984Z,28.20
2022-11-27T08:02:56.561Z,28.52
2022-11-27T08:05:58.140Z,28.17
2022-11-27T08:08:59.837Z,26.33
2022-11-27T08:12:01.538Z,29.20
2022-11-27T08:15:05.759Z,29.63
2022-11-27T08:18:07.332Z,27.50
2022-11-27T08:21:09.087Z,28.00
2022-11-27T08:24:10.662Z,27.60
2022-11-27T08:27:12.426Z,33.03
2022-11-27T08:30:14.887Z,29.08
2022-11-27T08:33:16.440Z,28.67
2022-11-27T08:36:18.565Z,27.27
2022-11-27T08:39:20.553Z,26.40
2022-11-27T08:42:23.214Z,28.05
2022-11-27T08:45:24.821Z,28.77
2022-11-27T08:48:26.446Z,27.90
2022-11-27T08:51:28.221Z,28.38
2022-11-27T08:54:29.795Z,27.67
2022-11-27T08:57:31.358Z,28.08
2022-11-27T09:00:34.143Z,28.35
2022-11-27T09:03:35.817Z,28.12
2022-11-27T09:06:37.493Z,29.95
2022-11-27T09:09:39.038Z,34.33
2022-11-27T09:12:43.527Z,27.87
2022-11-27T09:15:45.298Z,27.85
2022-11-27T09:18:50.199Z,26.25
2022-11-27T09:21:51.809Z,29.70
2022-11-27T09:24:53.475Z,27.90
2022-11-27T09:27:55.032Z,27.77
2022-11-27T09:30:57.127Z,28.77
2022-11-27T09:33:58.836Z,31.20
2022-11-27T09:37:00.419Z,29.15
2022-11-27T09:40:02.557Z,26.23
2022-11-27T09:43:10.242Z,25.95
2022-11-27T09:46:26.488Z,26.90
2022-11-27T09:49:35.470Z,30.02
2022-11-27T09:52:41.521Z,27.55
2022-11-27T09:55:47.875Z,26.98
2022-11-27T09:58:57.440Z,23.85
2022-11-27T10:01:59.205Z,23.85
2022-11-27T10:05:14.752Z,24.25
2022-11-27T10:08:16.723Z,26.27
2022-11-27T10:11:33.019Z,24.60
2022-11-27T10:14:40.485Z,24.77
2022-11-27T10:17:52.206Z,25.48
2022-11-27T10:20:58.415Z,26.10
2022-11-27T10:24:16.424Z,22.92
2022-11-27T10:30:25.794Z,22.62
2022-11-27T10:33:42.084Z,24.60
2022-11-27T10:36:48.366Z,23.55
2022-11-27T10:40:02.664Z,21.62
2022-11-27T10:43:14.374Z,21.83
2022-11-27T10:46:25.067Z,22.83
2022-11-27T10:49:26.717Z,23.05
2022-11-27T10:52:28.271Z,27.75
2022-11-27T10:56:04.813Z,23.58
2022-11-27T10:59:11.672Z,24.15
2022-11-27T11:02:33.575Z,24.27
2022-11-27T11:05:51.058Z,29.23
2022-11-27T11:09:29.147Z,23.20
2022-11-27T11:12:30.719Z,21.45
2022-11-27T11:15:33.009Z,22.10
2022-11-27T11:18:42.460Z,20.08
2022-11-27T11:21:45.131Z,21.30
2022-11-27T11:24:52.360Z,22.30
2022-11-27T11:27:54.152Z,23.40
2022-11-27T11:31:00.163Z,21.58
2022-11-27T11:34:13.394Z,20.17
2022-11-27T11:37:20.948Z,21.37
2022-11-27T11:43:33.668Z,21.75
2022-11-27T11:46:36.915Z,20.80
2022-11-27T11:49:38.565Z,22.17
2022-11-27T11:52:46.125Z,23.17
2022-11-27T11:59:15.575Z,24.25
2022-11-27T12:02:54.028Z,26.52
2022-11-27T12:06:05.316Z,25.27
2022-11-27T12:09:13.328Z,20.95
2022-11-27T12:12:20.958Z,24.02
2022-11-27T12:19:15.069Z,24.00
2022-11-27T12:22:37.358Z,28.90
2022-11-27T12:25:53.771Z,21.40
2022-11-27T12:29:32.454Z,20.75
2022-11-27T12:33:04.466Z,24.17
2022-11-27T12:36:27.855Z,23.00
2022-11-27T12:39:57.103Z,23.60
2022-11-27T12:43:16.787Z,24.02
2022-11-27T12:46:26.642Z,21.70
2022-11-27T12:49:42.783Z,24.70
2022-11-27T12:52:51.136Z,27.37
2022-11-27T12:56:08.990Z,29.75
2022-11-27T12:59:18.884Z,34.05
2022-11-27T13:02:27.074Z,26.62
2022-11-27T13:05:32.879Z,21.95
2022-11-27T13:08:52.285Z,20.62
2022-11-27T13:11:55.620Z,21.15
2022-11-27T13:15:23.993Z,22.23
2022-11-27T13:18:31.579Z,22.40
2022-11-27T13:24:36.244Z,24.02
2022-11-27T13:27:38.815Z,23.95
2022-11-27T13:30:40.495Z,22.92
2022-11-27T13:33:45.539Z,20.70
2022-11-27T13:36:55.748Z,23.38
2022-11-27T13:40:01.703Z,22.23
2022-11-27T13:43:07.376Z,24.27
2022-11-27T13:46:19.365Z,20.35
2022-11-27T13:49:30.447Z,24.77
2022-11-27T13:52:32.077Z,24.65
2022-11-27T13:55:36.145Z,29.02
2022-11-27T13:58:40.702Z,22.42
2022-11-27T14:02:03.385Z,22.75
2022-11-27T14:05:05.472Z,23.75
2022-11-27T14:08:29.198Z,21.85
2022-11-27T14:11:36.129Z,20.30
2022-11-27T14:14:37.746Z,22.58
2022-11-27T14:17:44.881Z,25.85
2022-11-27T14:20:51.586Z,28.10
2022-11-27T14:23:53.980Z,22.47
2022-11-27T14:26:57.632Z,19.23
2022-11-27T14:30:16.418Z,19.75
2022-11-27T14:33:25.235Z,20.02
2022-11-27T14:36:32.471Z,23.65
2022-11-27T14:39:36.994Z,30.10
2022-11-27T14:42:39.390Z,35.20
2022-11-27T14:45:50.374Z,24.08
2022-11-27T14:48:56.885Z,21.85
2022-11-27T14:52:04.689Z,20.05
2022-11-27T14:55:14.037Z,23.48
2022-11-27T14:58:20.872Z,25.83
2022-11-27T15:01:31.168Z,23.80
2022-11-27T15:04:38.252Z,21.92
2022-11-27T15:07:48.002Z,23.15
2022-11-27T15:10:55.647Z,25.17
2022-11-27T15:14:00.354Z,33.00
2022-11-27T15:17:02.376Z,31.35
2022-11-27T15:20:14.754Z,26.12
2022-11-27T15:23:26.329Z,39.45
2022-11-27T15:26:40.638Z,28.67
2022-11-27T15:30:11.313Z,25.20
2022-11-27T15:33:33.931Z,25.52
2022-11-27T15:36:42.348Z,23.90
2022-11-27T15:39:52.829Z,25.35
2022-11-27T15:42:54.376Z,23.90
2022-11-27T15:45:56.060Z,22.55
2022-11-27T15:48:58.665Z,26.60
2022-11-27T15:52:00.337Z,26.62
2022-11-27T15:55:01.938Z,28.35
2022-11-27T15:58:03.505Z,30.65
2022-11-27T16:01:06.779Z,31.02
2022-11-27T16:04:08.823Z,27.87
2022-11-27T16:07:10.893Z,26.12
2022-11-27T16:10:12.660Z,25.58
2022-11-27T16:13:14.280Z,25.60
2022-11-27T16:16:16.108Z,27.48
2022-11-27T16:19:17.732Z,28.12
2022-11-27T16:22:19.433Z,26.48
2022-11-27T16:25:21.189Z,25.67
2022-11-27T16:28:22.926Z,24.12
2022-11-27T16:31:25.690Z,27.00
2022-11-27T16:34:27.454Z,26.95
2022-11-27T16:37:29.149Z,37.92
2022-11-27T16:40:31.091Z,35.20
2022-11-27T16:43:42.763Z,37.17
2022-11-27T16:46:44.746Z,39.42
2022-11-27T16:49:48.725Z,35.17
2022-11-27T16:52:54.452Z,35.13
2022-11-27T16:55:56.837Z,31.10
2022-11-27T16:59:02.969Z,35.08
2022-11-27T17:02:05.822Z,31.33
2022-11-27T17:05:08.248Z,31.90
2022-11-27T17:08:09.922Z,34.25
2022-11-27T17:11:14.799Z,29.50
2022-11-27T17:14:17.260Z,27.00
2022-11-27T17:17:19.183Z,28.45
2022-11-27T17:20:21.081Z,30.45
2022-11-27T17:23:22.926Z,29.23
2022-11-27T17:26:26.544Z,28.80
2022-11-27T17:29:32.232Z,27.70
2022-11-27T17:32:35.737Z,27.17
2022-11-27T17:35:37.540Z,27.02
2022-11-27T17:38:39.778Z,26.02
2022-11-27T17:41:44.982Z,26.25
2022-11-27T17:44:47.853Z,26.67
2022-11-27T17:47:49.814Z,27.95
2022-11-27T17:50:52.641Z,29.63
2022-11-27T17:53:54.645Z,31.70
2022-11-27T17:56:56.254Z,35.17
2022-11-27T17:59:58.062Z,33.20
2022-11-27T18:03:04.635Z,33.95
2022-11-27T18:06:10.358Z,40.42
2022-11-27T18:09:12.936Z,38.25
2022-11-27T18:12:14.975Z,38.05
2022-11-27T18:15:16.733Z,38.20
2022-11-27T18:18:18.739Z,36.13
2022-11-27T18:21:21.985Z,36.28
2022-11-27T18:24:24.959Z,40.42
2022-11-27T18:27:27.670Z,37.22
2022-11-27T18:30:29.823Z,33.85
2022-11-27T18:33:31.859Z,34.40
2022-11-27T18:36:34.016Z,33.00
2022-11-27T18:39:37.282Z,30.90
2022-11-27T18:42:39.377Z,32.58
2022-11-27T18:45:41.598Z,31.42
2022-11-27T18:48:44.516Z,30.98
2022-11-27T18:51:46.550Z,34.80
2022-11-27T18:54:48.190Z,32.47
2022-11-27T18:57:50.155Z,30.42
2022-11-27T19:00:55.066Z,32.30
2022-11-27T19:03:59.099Z,30.85
2022-11-27T19:07:01.142Z,29.17
2022-11-27T19:10:02.856Z,31.52
2022-11-27T19:13:04.962Z,32.50
2022-11-27T19:16:08.841Z,30.62
2022-11-27T19:19:49.280Z,28.98
2022-11-27T19:22:33.743Z,27.85
2022-11-27T19:25:38.766Z,28.48
2022-11-27T19:28:43.481Z,28.45
2022-11-27T19:31:45.220Z,27.02
2022-11-27T19:34:50.222Z,28.35
2022-11-27T19:37:52.429Z,26.70
2022-11-27T19:40:54.602Z,27.62
2022-11-27T19:43:56.747Z,26.85
2022-11-27T19:46:58.788Z,27.65
2022-11-27T19:50:01.902Z,25.88
2022-11-27T19:53:05.229Z,26.35
2022-11-27T19:56:07.885Z,27.65
2022-11-27T19:59:11.872Z,27.05
2022-11-27T20:02:15.022Z,27.60
2022-11-27T20:05:18.489Z,25.40
2022-11-27T20:08:20.620Z,27.67
2022-11-27T20:11:32.633Z,29.30
2022-11-27T20:14:40.167Z,27.35
2022-11-27T20:17:42.540Z,28.50
2022-11-27T20:20:46.004Z,29.10
2022-11-27T20:23:49.350Z,29.77
2022-11-27T20:26:51.614Z,30.27
2022-11-27T20:29:56.793Z,30.50
2022-11-27T20:33:01.987Z,29.85
2022-11-27T20:36:16.490Z,29.90
2022-11-27T20:39:21.687Z,29.15
2022-11-27T20:42:32.719Z,27.55
2022-11-27T20:45:38.760Z,31.20
2022-11-27T20:48:43.843Z,29.23
2022-11-27T20:51:47.040Z,30.75
2022-11-27T20:54:48.795Z,31.23
2022-11-27T20:57:54.587Z,31.52
2022-11-27T21:01:00.397Z,30.67
2022-11-27T21:04:09.175Z,28.05
2022-11-27T21:07:11.465Z,28.75
2022-11-27T21:10:16.991Z,27.87
2022-11-27T21:13:18.812Z,27.33
2022-11-27T21:16:20.437Z,27.35
2022-11-27T21:19:25.381Z,29.23
2022-11-27T21:22:28.940Z,27.42
2022-11-27T21:25:30.562Z,28.30
2022-11-27T21:28:35.931Z,27.37
2022-11-27T21:31:40.050Z,26.30
2022-11-27T21:34:44.548Z,27.00
2022-11-27T21:37:46.232Z,25.88
2022-11-27T21:40:47.760Z,26.05
2022-11-27T21:43:49.708Z,25.35
2022-11-27T21:46:51.839Z,27.67
2022-11-27T21:49:53.411Z,29.00
2022-11-27T21:52:55.033Z,27.20
2022-11-27T21:55:56.666Z,27.15
2022-11-27T21:58:58.270Z,25.98
2022-11-27T22:01:59.968Z,26.10
2022-11-27T22:05:01.580Z,25.77
2022-11-27T22:08:03.239Z,26.08
2022-11-27T22:11:09.569Z,24.73
2022-11-27T22:14:11.263Z,24.83
2022-11-27T22:17:12.932Z,25.42
2022-11-27T22:20:15.277Z,25.62
2022-11-27T22:23:16.831Z,25.25
2022-11-27T22:26:20.567Z,28.83
2022-11-27T22:29:22.151Z,28.02
2022-11-27T22:32:23.751Z,28.27
2022-11-27T22:35:25.917Z,28.35
2022-11-27T22:38:27.451Z,28.10
2022-11-27T22:41:30.749Z,27.15
2022-11-27T22:44:32.293Z,26.73
2022-11-27T22:47:33.857Z,25.62
2022-11-27T22:50:35.449Z,27.90
2022-11-27T22:53:37.191Z,27.02
2022-11-27T22:56:38.961Z,25.80
2022-11-27T22:59:40.602Z,27.02
2022-11-27T23:02:42.179Z,27.17
2022-11-27T23:05:45.233Z,26.17
2022-11-27T23:08:48.270Z,25.73
2022-11-27T23:11:50.090Z,25.90
2022-11-27T23:14:51.819Z,27.92
2022-11-27T23:17:53.429Z,26.58
2022-11-27T23:20:55.016Z,29.02
2022-11-27T23:23:56.609Z,27.58
2022-11-27T23:26:58.157Z,27.17
2022-11-27T23:29:59.724Z,26.15
2022-11-27T23:33:01.279Z,26.77
2022-11-27T23:36:04.742Z,27.02
2022-11-27T23:39:08.459Z,28.50
2022-11-27T23:42:10.013Z,27.48
2022-11-27T23:45:11.564Z,25.70
2022-11-27T23:48:13.135Z,25.70
2022-11-27T23:51:17.894Z,24.85
2022-11-27T23:54:19.509Z,27.02
2022-11-27T23:57:21.048Z,27.10
